Airport ID:KBDN
Update Time (UTC):02/02/2023 10:38
Wind Speed (Knots):10
Wind Direction (Magnetic):100
Temperature (°C):-3
Dew Point (°C):-8
Humidity (%):72
Altimeter (inHg):30.14
Density Altitude (Feet):
Visibility:10+
Clouds (Hundreds of feet):CLR
Present Weather:
METAR:METAR KBDN 021035Z AUTO 13009KT 10SM CLR M03/M08 A3015 RMK AO2

The data displayed is for advisory purposes only and is not to be used for flight planning or operations.